»·PEaware :: N5826T KBUR-KCNO

N5826T :: KBUR-KCNO

FLIGHT INFORMATION

Flight Status: Arrived
Operator: Privately registered:
United States
More flights under this callsign
Pilot: Daniel J. (32090)
Aircraft: Diamond DA-62
(DA62)
More flights by this aircraft type
Origin: KBUR Bob Hope-Burbank
United States
Destination: KCNO Chino
United States
More flights between these airports :: More routes between these airports
Route: ELMOO9 ELMOO V186 PDZ
File this flight plan on PilotEdge
Remarks:
Altitude:
(Current/Filed)
5,000ft
Speed:
(Current/Filed)
140kts
Departed: 06-Jan-21 04:54 PM
Arrived: 06-Jan-21 05:28 PM
Distance/Time
Traveled:
38nm/0:34
Distance/Time
To Go:
Arrived

Flight Plot

Page will automatically refresh every two minutes.

Flight plan parsing failed; only flown route is shown


Map Options




Map Legend


Flown Route
Filed Route
Departure Airport
Arrival Airport
Navaid (VOR, NDB)
Fix

Horizontal Profiles

Position Reports

Time Latitude Longitude Heading Altitude Ground
Speed
06-Jan-21 16:24 34.200211 -118.358866 280 725ft 0kts
06-Jan-21 16:25 34.200211 -118.358866 280 725ft 0kts
06-Jan-21 16:26 34.200211 -118.358866 280 725ft 0kts
06-Jan-21 16:27 34.200211 -118.358866 280 725ft 0kts
06-Jan-21 16:28 34.200211 -118.358866 280 725ft 0kts
06-Jan-21 16:29 34.200211 -118.358866 280 725ft 0kts
06-Jan-21 16:30 34.200211 -118.358866 280 725ft 0kts
06-Jan-21 16:31 34.200211 -118.358866 280 725ft 0kts
06-Jan-21 16:32 34.200211 -118.358866 280 725ft 0kts
06-Jan-21 16:33 34.200211 -118.358866 280 725ft 0kts
06-Jan-21 16:34 34.200211 -118.358866 280 725ft 0kts
06-Jan-21 16:35 34.200211 -118.358866 280 725ft 0kts
06-Jan-21 16:36 34.200211 -118.358866 280 725ft 0kts
06-Jan-21 16:37 34.200211 -118.358866 280 725ft 0kts
06-Jan-21 16:38 34.200211 -118.358866 280 725ft 0kts
06-Jan-21 16:39 34.200211 -118.358866 280 725ft 0kts
06-Jan-21 16:40 34.200211 -118.358866 280 725ft 0kts
06-Jan-21 16:41 34.200211 -118.358866 280 725ft 0kts
06-Jan-21 16:42 34.200211 -118.358866 280 725ft 0kts
06-Jan-21 16:43 34.200211 -118.358866 280 725ft 0kts
06-Jan-21 16:44 34.200211 -118.358866 280 725ft 0kts
06-Jan-21 16:45 34.200211 -118.358866 280 725ft 0kts
06-Jan-21 16:46 34.200211 -118.358866 280 725ft 0kts
06-Jan-21 16:47 34.200211 -118.358866 280 725ft 0kts
06-Jan-21 16:48 34.200211 -118.358866 280 725ft 0kts
06-Jan-21 16:49 34.201822 -118.358821 36 733ft 12kts
06-Jan-21 16:50 34.206859 -118.360103 347 757ft 16kts
06-Jan-21 16:51 34.211349 -118.361342 10 776ft 15kts
06-Jan-21 16:52 34.211544 -118.361266 24 777ft 0kts
06-Jan-21 16:53 34.205495 -118.358585 168 816ft 88kts
06-Jan-21 16:54 34.183979 -118.337107 125 1989ft 109kts
06-Jan-21 16:55 34.167044 -118.304354 118 3114ft 118kts
06-Jan-21 16:56 34.155103 -118.265418 109 4059ft 137kts
06-Jan-21 16:57 34.142321 -118.224227 109 5007ft 148kts
06-Jan-21 16:58 34.127261 -118.175257 109 5003ft 157kts
06-Jan-21 16:59 34.111908 -118.125049 109 5000ft 158kts
06-Jan-21 17:00 34.096436 -118.074552 109 4999ft 159kts
06-Jan-21 17:01 34.080702 -118.023332 109 5000ft 159kts
06-Jan-21 17:02 34.065069 -117.972485 109 4991ft 159kts
06-Jan-21 17:03 34.049469 -117.921840 109 4990ft 159kts
06-Jan-21 17:04 34.033913 -117.871409 109 4991ft 159kts
06-Jan-21 17:06 34.018324 -117.820990 109 4991ft 159kts
06-Jan-21 17:07 34.002695 -117.770542 109 4991ft 159kts
06-Jan-21 17:08 33.985608 -117.720690 112 4990ft 159kts
06-Jan-21 17:09 33.968705 -117.672750 111 4990ft 150kts
06-Jan-21 17:10 33.952337 -117.626283 111 4991ft 149kts
06-Jan-21 17:11 33.935975 -117.579935 111 4991ft 149kts
06-Jan-21 17:12 33.921229 -117.533061 86 4992ft 147kts
06-Jan-21 17:13 33.934250 -117.485424 65 4601ft 153kts
06-Jan-21 17:14 33.950762 -117.438867 65 4387ft 141kts
06-Jan-21 17:15 33.965811 -117.396513 64 4390ft 132kts
06-Jan-21 17:16 33.982875 -117.357987 26 4393ft 127kts
06-Jan-21 17:17 34.011009 -117.334379 78 4386ft 129kts
06-Jan-21 17:18 33.989470 -117.326117 241 4389ft 107kts
06-Jan-21 17:18 33.981106 -117.354176 262 4392ft 106kts
06-Jan-21 17:20 33.978188 -117.395759 270 4384ft 106kts
06-Jan-21 17:21 33.977582 -117.433994 271 3854ft 116kts
06-Jan-21 17:21 33.977315 -117.465689 270 3352ft 111kts
06-Jan-21 17:23 33.976951 -117.509294 270 2647ft 110kts
06-Jan-21 17:23 33.976681 -117.540300 270 2141ft 109kts
06-Jan-21 17:24 33.976385 -117.573991 270 1594ft 92kts
06-Jan-21 17:26 33.976024 -117.610226 269 997ft 91kts
06-Jan-21 17:26 33.975838 -117.635191 268 635ft 69kts
06-Jan-21 17:27 33.976591 -117.639238 357 630ft 0kts
06-Jan-21 17:28 33.977577 -117.636834 289 637ft 8kts
06-Jan-21 17:29 33.977370 -117.637228 173 635ft 0kts
06-Jan-21 17:30 33.977370 -117.637228 173 635ft 0kts
06-Jan-21 17:31 33.977369 -117.637228 173 635ft 0kts
06-Jan-21 17:32 33.977370 -117.637228 173 635ft 0kts

Navigation Log

Ident Type
Flight plan parsing failed, navigation log unavailable